EGHE - Scilly, Saint Mary's
Distance from station: E 5mi, 14km
Updated: 01/16/2018 6:50am
Nearby showers, Partly cloudy
Nearby showers, Partly cloudy
 Wind from W
Wind: W 36 mph , 57 km/h, Gust: 51 mph , 81 km/h
Temperature: 45°F , 7°C
Wind Chill: 34°F , 1°C
Dew Point: 39°F , 4°C
Humidity: 81%
Barometer: 29.62 inHg , 1003 hPa
Summary: Nearby Showers
Clouds: Partly Cloudy
Visibility: 6 miles , 9 km
Cloud details: Few Clouds 800 ft
Partly Cloudy 1200 ft
2018/01/16 14:50 EGHE 161450Z 28031G44KT 9000 VCSH FEW008 SCT012 07/04 Q1003